Time;durP1;ratioP1;P1;durP2;ratioP2;P2;SDS_P1;SDS_P2;PMS_P1;PMS_P2;Temp;Humidity;BMP_temperature;BMP_pressure;BME280_temperature;BME280_humidity;BME280_pressure;Samples;Min_cycle;Max_cycle;Signal;HPM_P1;HPM_P2
2023/08/08 00:00:54;;;;;;;0.50;0.50;;;13.20;99.90;;;;;;5057096;28;20044;-71
2023/08/08 00:03:19;;;;;;;0.55;0.55;;;13.20;99.90;;;;;;5057326;28;20037;-71
2023/08/08 00:05:45;;;;;;;0.40;0.40;;;13.20;99.90;;;;;;5057248;28;20064;-71
2023/08/08 00:08:11;;;;;;;0.50;0.50;;;13.20;99.90;;;;;;5056807;28;20077;-72
2023/08/08 00:10:36;;;;;;;0.40;0.40;;;13.20;99.90;;;;;;5057023;28;20041;-72
2023/08/08 00:13:02;;;;;;;0.40;0.40;;;13.20;99.90;;;;;;5057016;28;20102;-71
2023/08/08 00:15:28;;;;;;;0.40;0.40;;;13.30;99.90;;;;;;5056976;28;20107;-72
2023/08/08 00:17:53;;;;;;;0.50;0.50;;;13.30;99.90;;;;;;5057119;28;20049;-71
2023/08/08 00:20:19;;;;;;;0.60;0.60;;;13.30;99.90;;;;;;5056406;28;20053;-71
2023/08/08 00:22:44;;;;;;;0.40;0.40;;;13.20;99.90;;;;;;5056925;28;20370;-71
2023/08/08 00:25:10;;;;;;;0.60;0.60;;;13.20;99.90;;;;;;5056591;28;20037;-72
2023/08/08 00:27:41;;;;;;;0.40;0.40;;;13.20;99.90;;;;;;5056751;28;20076;-71
2023/08/08 00:30:07;;;;;;;0.38;0.38;;;13.20;99.90;;;;;;5056406;28;20045;-70
2023/08/08 00:32:33;;;;;;;0.40;0.40;;;13.30;99.90;;;;;;5056495;28;20041;-71
2023/08/08 00:34:59;;;;;;;0.40;0.40;;;13.20;99.90;;;;;;5056533;28;20036;-71
2023/08/08 00:37:24;;;;;;;0.40;0.40;;;13.30;99.90;;;;;;5056719;28;20106;-70
2023/08/08 00:39:50;;;;;;;0.63;0.63;;;13.30;99.90;;;;;;5056344;28;20449;-71
2023/08/08 00:42:15;;;;;;;0.40;0.40;;;13.30;99.90;;;;;;5056882;28;20041;-71
2023/08/08 00:44:41;;;;;;;0.40;0.40;;;13.30;99.90;;;;;;5056276;28;20151;-71
2023/08/08 00:47:09;;;;;;;0.40;0.40;;;13.30;99.90;;;;;;5056231;28;20037;-71
2023/08/08 00:49:35;;;;;;;0.40;0.40;;;13.30;99.90;;;;;;5056292;28;20423;-71
2023/08/08 00:52:01;;;;;;;0.83;0.70;;;13.30;99.90;;;;;;5056028;28;20532;-71
2023/08/08 00:54:26;;;;;;;0.45;0.45;;;13.20;99.90;;;;;;5056493;28;20310;-71
2023/08/08 00:56:52;;;;;;;0.40;0.40;;;13.20;99.90;;;;;;5056117;28;20072;-71
2023/08/08 00:59:19;;;;;;;0.40;0.40;;;13.30;99.90;;;;;;5056061;28;20123;-71
2023/08/08 01:01:45;;;;;;;0.50;0.50;;;13.20;99.90;;;;;;5055397;28;20041;-72
2023/08/08 01:04:12;;;;;;;0.40;0.40;;;13.20;99.90;;;;;;5055763;28;20405;-71
2023/08/08 01:06:43;;;;;;;0.40;0.40;;;13.20;99.90;;;;;;5055930;28;20044;-71
2023/08/08 01:09:21;;;;;;;0.50;0.50;;;13.20;99.90;;;;;;5056110;28;20044;-71
2023/08/08 01:11:49;;;;;;;0.40;0.40;;;13.20;99.90;;;;;;5055904;28;20128;-71
2023/08/08 01:14:18;;;;;;;0.40;0.40;;;13.20;99.90;;;;;;5055557;28;20067;-71
2023/08/08 01:16:45;;;;;;;0.40;0.40;;;13.20;99.90;;;;;;5055358;28;20349;-71
2023/08/08 01:19:19;;;;;;;1.55;0.88;;;13.30;99.90;;;;;;5056007;28;20450;-71
2023/08/08 01:21:48;;;;;;;0.65;0.65;;;13.30;99.90;;;;;;5055375;28;20486;-71
2023/08/08 01:24:13;;;;;;;0.43;0.43;;;13.30;99.90;;;;;;5055767;28;20048;-72
2023/08/08 01:26:41;;;;;;;0.40;0.40;;;13.30;99.90;;;;;;5055418;28;20044;-71
2023/08/08 01:29:06;;;;;;;0.40;0.40;;;13.30;99.90;;;;;;5055875;28;20048;-71
2023/08/08 01:31:32;;;;;;;0.40;0.40;;;13.30;99.90;;;;;;5055831;28;20045;-71
2023/08/08 01:33:57;;;;;;;0.50;0.50;;;13.30;99.90;;;;;;5055370;28;20045;-71
2023/08/08 01:36:30;;;;;;;0.40;0.40;;;13.30;99.90;;;;;;5055383;28;20037;-71
2023/08/08 01:39:03;;;;;;;0.40;0.40;;;13.30;99.90;;;;;;5055435;28;20045;-71
2023/08/08 01:41:32;;;;;;;0.40;0.40;;;13.30;99.90;;;;;;5055200;28;20043;-71
2023/08/08 01:43:59;;;;;;;0.50;0.50;;;13.40;99.90;;;;;;5055138;28;20432;-71
2023/08/08 01:46:26;;;;;;;0.50;0.50;;;13.40;99.90;;;;;;5055152;28;20040;-71
2023/08/08 01:48:52;;;;;;;0.50;0.50;;;13.40;99.90;;;;;;5055071;28;20041;-71
2023/08/08 01:51:17;;;;;;;0.40;0.40;;;13.40;99.90;;;;;;5054874;28;20128;-72
2023/08/08 01:53:43;;;;;;;0.40;0.40;;;13.40;99.90;;;;;;5054779;28;20037;-71
2023/08/08 01:56:09;;;;;;;0.40;0.40;;;13.40;99.90;;;;;;5053528;28;20382;-72
2023/08/08 01:58:34;;;;;;;0.68;0.68;;;13.50;99.90;;;;;;5054919;28;20045;-72
2023/08/08 02:01:00;;;;;;;0.40;0.40;;;13.40;99.90;;;;;;5054999;28;20041;-71
2023/08/08 02:03:25;;;;;;;0.40;0.40;;;13.50;99.90;;;;;;5054858;28;20040;-71
2023/08/08 02:05:51;;;;;;;0.43;0.43;;;13.40;99.90;;;;;;5054787;28;20036;-71
2023/08/08 02:08:18;;;;;;;0.40;0.40;;;13.50;99.90;;;;;;5055138;28;20037;-71
2023/08/08 02:10:43;;;;;;;0.45;0.45;;;13.50;99.90;;;;;;5054381;28;20116;-71
2023/08/08 02:13:09;;;;;;;0.73;0.73;;;13.50;99.90;;;;;;5054861;28;20469;-70
2023/08/08 02:15:35;;;;;;;0.40;0.40;;;13.50;99.90;;;;;;5054667;28;20485;-71
2023/08/08 02:18:00;;;;;;;0.50;0.50;;;13.50;99.90;;;;;;5054933;28;20529;-71
2023/08/08 02:20:26;;;;;;;0.50;0.50;;;13.50;99.90;;;;;;5054554;28;20110;-71
2023/08/08 02:22:52;;;;;;;0.50;0.50;;;13.50;99.90;;;;;;5054404;28;20033;-71
2023/08/08 02:25:18;;;;;;;0.47;0.47;;;13.50;99.90;;;;;;5054349;28;20036;-72
2023/08/08 02:27:43;;;;;;;0.60;0.60;;;13.50;99.90;;;;;;5054374;28;20124;-71
2023/08/08 02:30:10;;;;;;;0.40;0.40;;;13.50;99.90;;;;;;5054334;28;20044;-69
2023/08/08 02:32:35;;;;;;;0.77;0.75;;;13.50;99.90;;;;;;5054226;28;20037;-71
2023/08/08 02:35:01;;;;;;;0.50;0.50;;;13.50;99.90;;;;;;5054132;28;20143;-71
2023/08/08 02:37:27;;;;;;;1.23;0.60;;;13.50;99.90;;;;;;5054201;28;20041;-71
2023/08/08 02:39:53;;;;;;;0.50;0.50;;;13.50;99.90;;;;;;5054029;28;20044;-71
2023/08/08 02:42:18;;;;;;;0.40;0.40;;;13.50;99.90;;;;;;5054040;28;20044;-71
2023/08/08 02:44:44;;;;;;;0.40;0.40;;;13.50;99.90;;;;;;5054115;28;20033;-71
2023/08/08 02:47:09;;;;;;;0.70;0.70;;;13.50;99.90;;;;;;5054037;28;20428;-71
2023/08/08 02:49:35;;;;;;;0.40;0.40;;;13.50;99.90;;;;;;5052762;28;20037;-71
2023/08/08 02:52:01;;;;;;;0.50;0.50;;;13.50;99.90;;;;;;5053938;28;20440;-72
2023/08/08 02:54:27;;;;;;;0.60;0.60;;;13.50;99.90;;;;;;5053930;28;20055;-71
2023/08/08 02:56:52;;;;;;;0.40;0.40;;;13.60;99.90;;;;;;5054052;28;20748;-71
2023/08/08 02:59:18;;;;;;;0.40;0.40;;;13.50;99.90;;;;;;5053718;28;20033;-72
2023/08/08 03:01:44;;;;;;;0.40;0.40;;;13.50;99.90;;;;;;5054255;28;20041;-71
2023/08/08 03:04:09;;;;;;;0.40;0.40;;;13.50;99.90;;;;;;5054080;28;20045;-71
2023/08/08 03:06:35;;;;;;;0.40;0.40;;;13.50;99.90;;;;;;5053815;28;20526;-72
2023/08/08 03:09:01;;;;;;;0.88;0.88;;;13.50;99.90;;;;;;5053600;28;20047;-71
2023/08/08 03:11:26;;;;;;;0.65;0.65;;;13.50;99.90;;;;;;5053584;28;20190;-71
2023/08/08 03:13:52;;;;;;;0.50;0.47;;;13.50;99.90;;;;;;5053584;28;20119;-71
2023/08/08 03:16:18;;;;;;;0.60;0.60;;;13.50;99.90;;;;;;5053398;28;20076;-70
2023/08/08 03:18:43;;;;;;;1.00;0.73;;;13.50;99.90;;;;;;5052633;28;20497;-72
2023/08/08 03:21:09;;;;;;;0.50;0.50;;;13.50;99.90;;;;;;5053291;28;20053;-72
2023/08/08 03:23:34;;;;;;;0.50;0.50;;;13.50;99.90;;;;;;5053454;28;20072;-71
2023/08/08 03:26:00;;;;;;;0.40;0.40;;;13.60;99.90;;;;;;5052977;28;20040;-71
2023/08/08 03:28:26;;;;;;;0.40;0.40;;;13.50;99.90;;;;;;5053297;28;20041;-71
2023/08/08 03:30:51;;;;;;;0.77;0.77;;;13.50;99.90;;;;;;5053569;28;20120;-71
2023/08/08 03:33:17;;;;;;;0.65;0.65;;;13.50;99.90;;;;;;5053790;28;20135;-71
2023/08/08 03:35:43;;;;;;;0.40;0.40;;;13.50;99.90;;;;;;5053351;28;20037;-71
2023/08/08 03:38:09;;;;;;;0.40;0.40;;;13.50;99.90;;;;;;5053350;28;20385;-71
2023/08/08 03:40:35;;;;;;;0.50;0.50;;;13.50;99.90;;;;;;5052953;28;20275;-71
2023/08/08 03:43:01;;;;;;;0.40;0.40;;;13.40;99.90;;;;;;5053321;28;20145;-71
2023/08/08 03:45:28;;;;;;;0.40;0.40;;;13.40;99.90;;;;;;5053262;28;20037;-71
2023/08/08 03:47:53;;;;;;;0.50;0.50;;;13.40;99.90;;;;;;5053445;28;20048;-69
2023/08/08 03:50:19;;;;;;;0.60;0.60;;;13.40;99.90;;;;;;5053254;28;20094;-69
2023/08/08 03:52:45;;;;;;;0.40;0.40;;;13.40;99.90;;;;;;5053204;28;20107;-70
2023/08/08 03:55:11;;;;;;;0.40;0.40;;;13.40;99.90;;;;;;5053102;28;20041;-69
2023/08/08 03:57:36;;;;;;;0.60;0.50;;;13.40;99.90;;;;;;5053126;28;20068;-69
2023/08/08 04:00:03;;;;;;;0.60;0.60;;;13.40;99.90;;;;;;5053057;28;20056;-69
2023/08/08 04:02:28;;;;;;;0.40;0.40;;;13.40;99.90;;;;;;5053037;28;20048;-69
2023/08/08 04:04:54;;;;;;;0.40;0.40;;;13.30;99.90;;;;;;5052911;28;20124;-70
2023/08/08 04:07:20;;;;;;;0.50;0.50;;;13.40;99.90;;;;;;5053150;28;20037;-69
2023/08/08 04:09:46;;;;;;;0.50;0.50;;;13.30;99.90;;;;;;5052859;28;20099;-70
2023/08/08 04:12:11;;;;;;;1.20;1.10;;;13.30;99.90;;;;;;5053014;28;20116;-69
2023/08/08 04:14:37;;;;;;;0.40;0.40;;;13.30;99.90;;;;;;5052948;28;20090;-69
2023/08/08 04:17:04;;;;;;;0.90;0.60;;;13.30;99.90;;;;;;5053050;28;20366;-70
2023/08/08 04:19:30;;;;;;;0.40;0.40;;;13.30;99.90;;;;;;5053052;28;20389;-69
2023/08/08 04:21:55;;;;;;;0.50;0.50;;;13.20;99.90;;;;;;5052895;28;20041;-72
2023/08/08 04:24:21;;;;;;;0.40;0.40;;;13.20;99.90;;;;;;5052847;28;20123;-71
2023/08/08 04:26:46;;;;;;;0.50;0.50;;;13.20;99.90;;;;;;5053558;28;20041;-68
2023/08/08 04:29:12;;;;;;;0.40;0.40;;;13.20;99.90;;;;;;5052874;28;20033;-69
2023/08/08 04:31:38;;;;;;;0.50;0.50;;;13.10;99.90;;;;;;5052825;28;20033;-72
2023/08/08 04:34:03;;;;;;;0.40;0.40;;;13.10;99.90;;;;;;5052728;28;20389;-71
2023/08/08 04:36:29;;;;;;;0.40;0.40;;;13.10;99.90;;;;;;5052386;28;20041;-71
2023/08/08 04:38:55;;;;;;;0.40;0.40;;;13.10;99.90;;;;;;5055771;28;20350;-69
2023/08/08 04:41:21;;;;;;;0.57;0.45;;;13.10;99.90;;;;;;5056330;28;20400;-69
2023/08/08 04:43:47;;;;;;;0.40;0.40;;;13.10;99.90;;;;;;5056371;28;20041;-69
2023/08/08 04:46:13;;;;;;;0.40;0.40;;;13.10;99.90;;;;;;5056750;28;20037;-69
2023/08/08 04:48:39;;;;;;;0.40;0.40;;;13.10;99.90;;;;;;5056474;28;20084;-69
2023/08/08 04:51:05;;;;;;;0.43;0.43;;;13.00;99.90;;;;;;5056254;28;20430;-72
2023/08/08 04:53:31;;;;;;;0.50;0.50;;;13.10;99.90;;;;;;5056121;28;20045;-71
2023/08/08 04:55:57;;;;;;;0.45;0.45;;;13.10;99.90;;;;;;5056192;28;20044;-72
2023/08/08 04:58:22;;;;;;;0.50;0.50;;;13.00;99.90;;;;;;5056475;28;20037;-71
2023/08/08 05:00:48;;;;;;;0.57;0.57;;;13.10;99.90;;;;;;5056408;28;20114;-71
2023/08/08 05:03:14;;;;;;;0.50;0.50;;;13.10;99.90;;;;;;5056257;28;20131;-71
2023/08/08 05:05:39;;;;;;;1.03;0.80;;;13.10;99.90;;;;;;5056282;28;20120;-71
2023/08/08 05:08:05;;;;;;;0.40;0.40;;;13.10;99.90;;;;;;5055899;28;20037;-71
2023/08/08 05:10:31;;;;;;;0.40;0.40;;;13.10;99.90;;;;;;5055793;28;20473;-70
2023/08/08 05:12:57;;;;;;;0.43;0.43;;;13.10;99.90;;;;;;5055737;28;20501;-71
2023/08/08 05:15:23;;;;;;;0.40;0.40;;;13.10;99.90;;;;;;5055781;28;20047;-70
2023/08/08 05:17:48;;;;;;;0.40;0.40;;;13.20;99.90;;;;;;5055545;28;20088;-70
2023/08/08 05:20:15;;;;;;;0.30;0.30;;;13.10;99.90;;;;;;5055951;28;20056;-70
2023/08/08 05:22:40;;;;;;;0.45;0.45;;;13.20;99.90;;;;;;5056106;28;20041;-71
2023/08/08 05:25:06;;;;;;;0.40;0.40;;;13.30;99.90;;;;;;5055534;28;20415;-70
2023/08/08 05:27:32;;;;;;;0.40;0.40;;;13.30;99.90;;;;;;5055231;28;20041;-70
2023/08/08 05:29:57;;;;;;;0.40;0.40;;;13.40;99.90;;;;;;5055490;28;20095;-71
2023/08/08 05:32:23;;;;;;;0.85;0.80;;;13.50;99.90;;;;;;5055173;28;20041;-71
2023/08/08 05:34:51;;;;;;;0.43;0.43;;;13.60;99.90;;;;;;5055380;28;20048;-71
2023/08/08 05:37:16;;;;;;;0.40;0.40;;;13.60;99.90;;;;;;5055055;28;20374;-71
2023/08/08 05:39:42;;;;;;;0.60;0.60;;;13.80;99.90;;;;;;5055153;28;20036;-71
2023/08/08 05:42:08;;;;;;;0.75;0.75;;;13.90;99.90;;;;;;5055352;28;20033;-71
2023/08/08 05:44:33;;;;;;;0.38;0.38;;;14.10;99.90;;;;;;5055653;28;20110;-71
2023/08/08 05:46:59;;;;;;;0.40;0.40;;;14.20;99.90;;;;;;5055487;28;20378;-71
2023/08/08 05:49:25;;;;;;;0.40;0.40;;;14.30;99.90;;;;;;5054866;28;20045;-71
2023/08/08 05:51:50;;;;;;;0.40;0.40;;;14.40;99.90;;;;;;5055044;28;20080;-71
2023/08/08 05:54:16;;;;;;;0.40;0.40;;;14.50;99.90;;;;;;5055013;28;20433;-71
2023/08/08 05:56:41;;;;;;;0.40;0.40;;;14.60;99.90;;;;;;5055442;28;20354;-72
2023/08/08 05:59:07;;;;;;;0.40;0.40;;;14.60;99.90;;;;;;5053779;28;20454;-71
2023/08/08 06:01:34;;;;;;;0.40;0.40;;;14.60;99.90;;;;;;5054925;28;20045;-71
2023/08/08 06:04:00;;;;;;;;;;;14.60;99.90;;;;;;5055495;28;20148;-69
2023/08/08 06:06:26;;;;;;;0.40;0.40;;;14.60;99.90;;;;;;5054902;28;19956;-70
2023/08/08 06:08:52;;;;;;;0.40;0.40;;;14.70;99.90;;;;;;5054686;28;20068;-69
2023/08/08 06:11:18;;;;;;;0.40;0.40;;;14.70;99.90;;;;;;5054433;28;20456;-69
2023/08/08 06:13:43;;;;;;;0.40;0.40;;;14.70;99.90;;;;;;5054902;28;20044;-69
2023/08/08 06:16:09;;;;;;;0.40;0.40;;;14.70;99.90;;;;;;5054942;28;20339;-69
2023/08/08 06:18:35;;;;;;;0.30;0.30;;;14.80;99.90;;;;;;5054372;28;20500;-70
2023/08/08 06:21:01;;;;;;;0.50;0.50;;;14.70;99.90;;;;;;5054556;28;20033;-70
2023/08/08 06:23:27;;;;;;;0.40;0.40;;;14.70;99.90;;;;;;5054482;28;20373;-69
2023/08/08 06:25:52;;;;;;;0.60;0.60;;;14.80;99.90;;;;;;5054458;28;20029;-70
2023/08/08 06:28:18;;;;;;;0.40;0.40;;;14.80;99.90;;;;;;5054245;28;20084;-70
2023/08/08 06:30:44;;;;;;;0.40;0.40;;;14.80;99.90;;;;;;5054217;28;20487;-70
2023/08/08 06:33:09;;;;;;;0.40;0.40;;;14.90;99.90;;;;;;5054332;28;20457;-69
2023/08/08 06:35:35;;;;;;;0.40;0.40;;;15.10;99.90;;;;;;5054336;28;20128;-69
2023/08/08 06:38:01;;;;;;;0.63;0.40;;;15.20;99.90;;;;;;5054101;28;20150;-69
2023/08/08 06:40:27;;;;;;;0.30;0.30;;;15.30;99.90;;;;;;5053921;28;20140;-69
2023/08/08 06:42:52;;;;;;;1.95;0.68;;;15.50;99.90;;;;;;5054020;28;20041;-69
2023/08/08 06:45:18;;;;;;;0.50;0.50;;;15.60;99.90;;;;;;5054141;28;20428;-70
2023/08/08 06:47:45;;;;;;;0.30;0.30;;;15.80;99.90;;;;;;5053848;28;20080;-70
2023/08/08 06:50:11;;;;;;;0.60;0.60;;;15.90;99.90;;;;;;5053948;28;20082;-69
2023/08/08 06:52:36;;;;;;;0.70;0.50;;;16.00;99.90;;;;;;5053988;28;20045;-69
2023/08/08 06:55:02;;;;;;;0.40;0.40;;;16.10;99.90;;;;;;5053765;28;20124;-68
2023/08/08 06:57:32;;;;;;;0.50;0.50;;;16.20;99.90;;;;;;5053784;28;20044;-70
2023/08/08 06:59:57;;;;;;;0.30;0.30;;;16.40;99.90;;;;;;5053056;28;20048;-71
2023/08/08 07:02:23;;;;;;;0.30;0.30;;;16.40;99.90;;;;;;5054088;28;20045;-74
2023/08/08 07:04:49;;;;;;;0.30;0.30;;;16.50;99.90;;;;;;5053736;28;20049;-71
2023/08/08 07:07:14;;;;;;;0.40;0.40;;;16.60;99.90;;;;;;5053806;28;20048;-70
2023/08/08 07:09:41;;;;;;;0.73;0.50;;;16.70;99.90;;;;;;5053582;28;20059;-71
2023/08/08 07:12:07;;;;;;;;;;;16.80;99.90;;;;;;5054069;28;20045;-71
2023/08/08 07:14:32;;;;;;;0.30;0.30;;;16.90;99.90;;;;;;5053585;28;19917;-70
2023/08/08 07:16:58;;;;;;;0.30;0.30;;;17.00;99.90;;;;;;5052561;28;20099;-69
2023/08/08 07:19:24;;;;;;;0.73;0.73;;;17.10;99.90;;;;;;5052900;28;20043;-72
2023/08/08 07:21:51;;;;;;;;;;;17.20;99.90;;;;;;5053834;28;20067;-70
2023/08/08 07:24:17;;;;;;;0.30;0.30;;;17.30;99.90;;;;;;5052988;28;19960;-70
2023/08/08 07:26:42;;;;;;;0.40;0.40;;;17.40;99.90;;;;;;5052991;28;20132;-70
2023/08/08 07:29:08;;;;;;;0.30;0.30;;;17.50;99.90;;;;;;5053118;28;20124;-69
2023/08/08 07:31:33;;;;;;;0.40;0.40;;;17.50;99.90;;;;;;5053230;28;20037;-70
2023/08/08 07:33:59;;;;;;;0.20;0.20;;;17.50;99.90;;;;;;5053011;28;20136;-70
2023/08/08 07:36:25;;;;;;;0.87;0.87;;;17.50;99.90;;;;;;5053140;28;20547;-70
2023/08/08 07:38:51;;;;;;;0.30;0.30;;;17.50;99.90;;;;;;5052744;28;20037;-68
2023/08/08 07:41:17;;;;;;;0.30;0.30;;;17.50;99.90;;;;;;5053033;28;20461;-71
2023/08/08 07:43:43;;;;;;;;;;;17.40;99.90;;;;;;5053602;28;20045;-69
2023/08/08 07:46:09;;;;;;;0.30;0.30;;;17.50;99.90;;;;;;5053094;28;19943;-69
2023/08/08 07:48:35;;;;;;;0.30;0.30;;;17.50;99.90;;;;;;5053155;28;20357;-69
2023/08/08 07:51:00;;;;;;;0.30;0.30;;;17.50;99.90;;;;;;5053084;28;20542;-70
2023/08/08 07:53:26;;;;;;;0.30;0.30;;;17.60;99.90;;;;;;5052557;28;20041;-70
2023/08/08 07:55:51;;;;;;;0.30;0.30;;;17.70;99.90;;;;;;5052910;28;20045;-69
2023/08/08 07:58:17;;;;;;;0.50;0.50;;;17.80;99.90;;;;;;5052864;28;20461;-69
2023/08/08 08:00:44;;;;;;;0.40;0.40;;;18.00;99.90;;;;;;5052948;28;20072;-70
2023/08/08 08:03:09;;;;;;;;;;;18.10;99.90;;;;;;5053408;28;20049;-69
2023/08/08 08:05:36;;;;;;;0.30;0.30;;;18.30;99.90;;;;;;5052904;28;19940;-71
2023/08/08 08:08:02;;;;;;;0.30;0.30;;;18.40;99.90;;;;;;5052778;28;20119;-70
2023/08/08 08:10:28;;;;;;;0.30;0.30;;;18.40;99.90;;;;;;5052788;28;20134;-70
2023/08/08 08:12:57;;;;;;;0.37;0.37;;;18.40;99.90;;;;;;5056086;28;20469;-69
2023/08/08 08:15:24;;;;;;;1.20;0.55;;;18.30;99.90;;;;;;5056780;28;20132;-70
2023/08/08 08:17:50;;;;;;;0.30;0.30;;;18.30;99.90;;;;;;5056528;28;20133;-70
2023/08/08 08:20:15;;;;;;;0.37;0.37;;;18.20;99.90;;;;;;5056699;28;20358;-70
2023/08/08 08:22:41;;;;;;;0.30;0.30;;;18.20;99.90;;;;;;5056535;28;20424;-69
2023/08/08 08:25:09;;;;;;;0.30;0.30;;;18.30;99.90;;;;;;5056395;28;20033;-69
2023/08/08 08:27:37;;;;;;;0.30;0.30;;;18.20;99.90;;;;;;5056644;28;20090;-70
2023/08/08 08:30:09;;;;;;;0.30;0.30;;;18.10;99.90;;;;;;5056551;28;20039;-69
2023/08/08 08:32:36;;;;;;;0.30;0.30;;;18.00;99.90;;;;;;5056568;28;20426;-70
2023/08/08 08:35:03;;;;;;;0.30;0.30;;;17.90;99.90;;;;;;5056598;28;20476;-71
2023/08/08 08:37:30;;;;;;;0.20;0.20;;;17.90;99.90;;;;;;5055769;28;20044;-70
2023/08/08 08:39:55;;;;;;;0.40;0.40;;;17.80;99.90;;;;;;5056403;28;20044;-70
2023/08/08 08:42:21;;;;;;;0.30;0.30;;;18.00;99.90;;;;;;5056477;28;20381;-71
2023/08/08 08:44:49;;;;;;;2.08;0.30;;;18.10;99.90;;;;;;5055128;28;20033;-70
2023/08/08 08:47:19;;;;;;;0.20;0.20;;;18.10;99.90;;;;;;5056031;28;20128;-70
2023/08/08 08:49:45;;;;;;;0.22;0.22;;;18.30;99.90;;;;;;5054964;28;20053;-70
2023/08/08 08:52:12;;;;;;;0.30;0.30;;;18.30;99.90;;;;;;5055158;28;20048;-71
2023/08/08 08:54:38;;;;;;;0.50;0.50;;;18.30;99.90;;;;;;5055579;28;20041;-70
2023/08/08 08:57:04;;;;;;;0.30;0.30;;;18.30;99.90;;;;;;5055486;28;20029;-70
2023/08/08 08:59:29;;;;;;;0.30;0.30;;;18.30;99.90;;;;;;5055194;28;20135;-70
2023/08/08 09:01:56;;;;;;;0.30;0.30;;;18.40;99.90;;;;;;5055798;28;20045;-70
2023/08/08 09:04:22;;;;;;;0.30;0.30;;;18.50;99.90;;;;;;5055250;28;20413;-70
2023/08/08 09:06:52;;;;;;;0.30;0.30;;;18.50;99.90;;;;;;5055106;28;20385;-71
2023/08/08 09:09:21;;;;;;;0.30;0.30;;;18.50;99.90;;;;;;5055519;28;20128;-71
2023/08/08 09:11:51;;;;;;;0.30;0.30;;;18.60;99.90;;;;;;5055274;28;20465;-70
2023/08/08 09:14:23;;;;;;;0.30;0.30;;;18.60;99.90;;;;;;5055348;28;20461;-71
2023/08/08 09:16:51;;;;;;;0.30;0.30;;;18.50;99.90;;;;;;5055336;28;20303;-71
2023/08/08 09:19:20;;;;;;;1.45;0.40;;;18.50;99.90;;;;;;5055196;28;20037;-71
2023/08/08 09:21:46;;;;;;;0.40;0.40;;;18.40;99.90;;;;;;5055294;28;20545;-70
2023/08/08 09:24:12;;;;;;;0.30;0.30;;;18.30;99.90;;;;;;5054387;28;20045;-70
2023/08/08 09:26:39;;;;;;;0.33;0.33;;;18.50;99.90;;;;;;5055083;28;20545;-70
2023/08/08 09:29:05;;;;;;;0.30;0.30;;;18.50;99.90;;;;;;5055336;28;20362;-70
2023/08/08 09:31:31;;;;;;;0.38;0.38;;;18.60;99.90;;;;;;5054987;28;20041;-70
2023/08/08 09:33:59;;;;;;;0.37;0.37;;;18.70;99.90;;;;;;5054528;28;20041;-70
2023/08/08 09:36:25;;;;;;;0.55;0.55;;;18.70;99.90;;;;;;5054767;28;20044;-70
2023/08/08 09:38:51;;;;;;;0.30;0.30;;;18.70;99.90;;;;;;5054756;28;20116;-70
2023/08/08 09:41:17;;;;;;;0.20;0.20;;;18.70;99.90;;;;;;5054793;28;20476;-71
2023/08/08 09:43:44;;;;;;;0.30;0.30;;;18.80;99.90;;;;;;5054712;28;20048;-70
2023/08/08 09:46:10;;;;;;;0.30;0.30;;;18.90;99.90;;;;;;5054778;28;20060;-71
2023/08/08 09:48:39;;;;;;;0.37;0.37;;;19.00;99.90;;;;;;5054254;28;20044;-71
2023/08/08 09:51:06;;;;;;;0.40;0.40;;;19.10;99.90;;;;;;5054788;28;20064;-70
2023/08/08 09:53:32;;;;;;;0.30;0.30;;;18.90;99.90;;;;;;5054782;28;20376;-70
2023/08/08 09:55:59;;;;;;;0.38;0.38;;;18.70;99.90;;;;;;5054514;28;20366;-70
2023/08/08 09:58:24;;;;;;;0.30;0.30;;;18.50;99.90;;;;;;5054538;28;20045;-71
2023/08/08 10:00:50;;;;;;;0.30;0.30;;;18.40;99.90;;;;;;5054344;28;20139;-70
2023/08/08 10:03:19;;;;;;;0.40;0.40;;;18.30;99.90;;;;;;5054581;28;20037;-70
2023/08/08 10:05:45;;;;;;;0.30;0.30;;;18.30;99.90;;;;;;5054467;28;20140;-70
2023/08/08 10:08:12;;;;;;;0.20;0.20;;;18.30;99.90;;;;;;5054587;28;20417;-71
2023/08/08 10:10:38;;;;;;;0.30;0.30;;;18.60;99.90;;;;;;5054407;28;20127;-70
2023/08/08 10:13:05;;;;;;;0.45;0.45;;;18.80;99.90;;;;;;5054221;28;20048;-69
2023/08/08 10:15:31;;;;;;;0.30;0.30;;;18.90;99.90;;;;;;5054125;28;20037;-70
2023/08/08 10:17:58;;;;;;;0.40;0.40;;;18.90;99.90;;;;;;5056725;28;20064;-71
2023/08/08 10:20:27;;;;;;;0.40;0.40;;;18.80;99.90;;;;;;5054927;28;20049;-70
2023/08/08 10:22:54;;;;;;;0.20;0.20;;;18.50;99.90;;;;;;5055608;28;20041;-69
2023/08/08 10:25:24;;;;;;;0.20;0.20;;;18.20;99.90;;;;;;5054166;28;20049;-71
2023/08/08 10:27:50;;;;;;;0.30;0.30;;;17.90;99.90;;;;;;5054015;28;20086;-71
2023/08/08 10:30:15;;;;;;;0.30;0.30;;;17.60;99.90;;;;;;5053937;28;20033;-71
2023/08/08 10:32:43;;;;;;;0.40;0.40;;;17.50;99.90;;;;;;5054044;28;20120;-70
2023/08/08 10:35:11;;;;;;;0.40;0.40;;;17.40;99.90;;;;;;5052926;28;20045;-70
2023/08/08 10:37:37;;;;;;;0.20;0.20;;;17.50;99.90;;;;;;5053999;28;20037;-70
2023/08/08 10:40:07;;;;;;;0.30;0.30;;;17.50;99.90;;;;;;5053868;28;20037;-72
2023/08/08 10:42:42;;;;;;;0.30;0.30;;;17.70;99.90;;;;;;5053997;28;20052;-71
2023/08/08 10:45:12;;;;;;;0.30;0.30;;;17.70;99.90;;;;;;5053786;28;20033;-71
2023/08/08 10:47:38;;;;;;;0.60;0.60;;;17.90;99.90;;;;;;5054059;28;20033;-72
2023/08/08 10:50:09;;;;;;;0.30;0.30;;;17.90;99.90;;;;;;5052669;28;20029;-70
2023/08/08 10:52:52;;;;;;;0.30;0.30;;;18.00;99.90;;;;;;5052441;28;20060;-69
2023/08/08 10:55:20;;;;;;;0.30;0.30;;;18.00;99.90;;;;;;5053746;28;20041;-70
2023/08/08 10:57:53;;;;;;;0.30;0.30;;;18.10;99.90;;;;;;5053483;28;20040;-69
2023/08/08 11:00:20;;;;;;;0.30;0.30;;;18.30;99.90;;;;;;5053392;28;20060;-69
2023/08/08 11:02:46;;;;;;;0.30;0.30;;;18.20;99.90;;;;;;5053325;28;20037;-70
2023/08/08 11:05:13;;;;;;;0.32;0.32;;;18.00;99.90;;;;;;5053325;28;20445;-70
2023/08/08 11:07:39;;;;;;;0.30;0.30;;;17.70;99.90;;;;;;5053219;28;20127;-70
2023/08/08 11:10:06;;;;;;;0.60;0.60;;;17.50;99.90;;;;;;5052924;28;20128;-70
2023/08/08 11:12:31;;;;;;;0.38;0.38;;;17.50;99.90;;;;;;5052874;28;20048;-70
2023/08/08 11:14:58;;;;;;;0.40;0.40;;;17.70;99.90;;;;;;5053347;28;20037;-70
2023/08/08 11:17:24;;;;;;;0.30;0.30;;;17.80;99.90;;;;;;5053355;28;20132;-70
2023/08/08 11:19:50;;;;;;;0.30;0.30;;;17.90;99.90;;;;;;5053099;28;20451;-70
2023/08/08 11:22:16;;;;;;;0.30;0.30;;;17.90;99.90;;;;;;5053251;28;20045;-70
2023/08/08 11:24:42;;;;;;;0.30;0.30;;;17.90;99.90;;;;;;5053163;28;20055;-71
2023/08/08 11:27:07;;;;;;;3.93;0.60;;;17.80;99.90;;;;;;5051907;28;20481;-70
2023/08/08 11:29:33;;;;;;;0.30;0.30;;;17.80;99.90;;;;;;5053272;28;20040;-70
2023/08/08 11:32:04;;;;;;;0.30;0.30;;;17.90;99.90;;;;;;5052823;28;20041;-70
2023/08/08 11:34:31;;;;;;;0.40;0.40;;;18.00;99.90;;;;;;5053198;28;20074;-70
2023/08/08 11:36:59;;;;;;;0.30;0.30;;;18.10;99.90;;;;;;5053178;28;20103;-70
2023/08/08 11:39:26;;;;;;;1.38;0.65;;;18.20;99.90;;;;;;5052683;28;20045;-69
2023/08/08 11:41:52;;;;;;;0.40;0.40;;;18.10;99.90;;;;;;5052763;28;20103;-70
2023/08/08 11:44:18;;;;;;;0.50;0.50;;;18.00;99.90;;;;;;5052803;28;20083;-70
2023/08/08 11:46:46;;;;;;;0.20;0.20;;;17.90;99.90;;;;;;5053993;28;20283;-70
2023/08/08 11:49:14;;;;;;;1.35;0.82;;;17.80;99.90;;;;;;5057170;28;20067;-70
2023/08/08 11:51:42;;;;;;;0.40;0.40;;;17.70;99.90;;;;;;5057096;28;20041;-70
2023/08/08 11:54:08;;;;;;;0.30;0.30;;;17.70;99.90;;;;;;5056932;28;20049;-69
2023/08/08 11:56:35;;;;;;;0.30;0.30;;;17.70;99.90;;;;;;5056953;28;20354;-72
2023/08/08 11:59:01;;;;;;;0.35;0.35;;;17.70;99.90;;;;;;5056905;28;20047;-72
2023/08/08 12:01:27;;;;;;;0.30;0.30;;;17.70;99.90;;;;;;5056721;28;20076;-72
2023/08/08 12:03:56;;;;;;;0.20;0.20;;;17.70;99.90;;;;;;5056671;28;20536;-72
2023/08/08 12:06:22;;;;;;;0.30;0.30;;;17.70;99.90;;;;;;5056578;28;20041;-71
2023/08/08 12:08:48;;;;;;;0.30;0.30;;;17.50;99.90;;;;;;5056576;28;20465;-71
2023/08/08 12:11:15;;;;;;;0.30;0.30;;;17.40;99.90;;;;;;5056742;28;20045;-72
2023/08/08 12:13:42;;;;;;;0.30;0.30;;;17.30;99.90;;;;;;5056590;28;20060;-71
2023/08/08 12:16:11;;;;;;;;;;;17.30;99.90;;;;;;5056938;28;20037;-72
2023/08/08 12:18:38;;;;;;;0.32;0.32;;;17.40;99.90;;;;;;5056666;28;19917;-72
2023/08/08 12:21:08;;;;;;;0.30;0.30;;;17.50;99.90;;;;;;5056085;28;20045;-71
2023/08/08 12:23:34;;;;;;;0.57;0.50;;;17.80;99.90;;;;;;5056257;28;20060;-71
2023/08/08 12:26:02;;;;;;;0.30;0.30;;;18.00;99.90;;;;;;5056875;28;20128;-71
2023/08/08 12:28:29;;;;;;;0.40;0.40;;;18.20;99.90;;;;;;5056327;28;20429;-73
2023/08/08 12:30:54;;;;;;;0.30;0.30;;;18.30;99.90;;;;;;5056165;28;20032;-73
2023/08/08 12:33:20;;;;;;;0.30;0.30;;;18.60;99.90;;;;;;5056163;28;20082;-73
2023/08/08 12:35:47;;;;;;;0.33;0.33;;;18.70;99.90;;;;;;5056205;28;20115;-74
2023/08/08 12:38:14;;;;;;;0.30;0.30;;;18.70;99.90;;;;;;5055911;28;20047;-73
2023/08/08 12:40:39;;;;;;;0.30;0.30;;;18.70;99.90;;;;;;5056052;28;20409;-73
2023/08/08 12:43:05;;;;;;;0.30;0.30;;;18.60;99.90;;;;;;5056146;28;20048;-73